Time;durP1;ratioP1;P1;durP2;ratioP2;P2;SDS_P1;SDS_P2;PMS_P1;PMS_P2;Temp;Humidity;BMP_temperature;BMP_pressure;BME280_temperature;BME280_humidity;BME280_pressure;Samples;Min_cycle;Max_cycle;Signal;HPM_P1;HPM_P2
2022/08/13 00:00:38;;;;;;;12.77;10.27;;;;;;;;;;5056679;28;20219;-43
2022/08/13 00:03:14;;;;;;;17.23;9.23;;;;;;;;;;5056270;28;20283;-44
2022/08/13 00:06:08;;;;;;;11.13;9.05;;;;;;;;;;5055951;28;20278;-44
2022/08/13 00:08:48;;;;;;;13.50;10.27;;;;;;;;;;5055823;28;20196;-43
2022/08/13 00:12:56;;;;;;;13.00;9.73;;;;;;;;;;5055811;28;20206;-45
2022/08/13 00:14:27;;;;;;;14.38;10.10;;;;;;;;;;5055796;28;20227;-44
2022/08/13 00:17:05;;;;;;;12.90;9.75;;;;;;;;;;5056329;28;20204;-44
2022/08/13 00:19:38;;;;;;;11.98;9.65;;;;;;;;;;5056001;28;20188;-45
2022/08/13 00:22:08;;;;;;;14.93;10.40;;;;;;;;;;5052791;28;20227;-44
2022/08/13 00:24:57;;;;;;;16.33;10.05;;;;;;;;;;5054312;28;20192;-45
2022/08/13 00:27:26;;;;;;;12.60;9.27;;;;;;;;;;5054244;28;20195;-44
2022/08/13 00:30:07;;;;;;;13.48;10.23;;;;;;;;;;5069904;28;20537;-45
2022/08/13 00:32:37;;;;;;;12.40;10.02;;;;;;;;;;5055245;28;20634;-44
2022/08/13 00:35:04;;;;;;;12.27;9.90;;;;;;;;;;5054213;28;20223;-45
2022/08/13 00:37:37;;;;;;;15.05;9.52;;;;;;;;;;5055534;28;20200;-44
2022/08/13 00:40:19;;;;;;;13.50;9.82;;;;;;;;;;5055396;28;20195;-44
2022/08/13 00:43:02;;;;;;;11.13;9.73;;;;;;;;;;5055661;28;20199;-45
2022/08/13 00:45:32;;;;;;;14.30;10.95;;;;;;;;;;5056243;28;20586;-45
2022/08/13 00:50:45;;;;;;;12.48;9.98;;;;;;;;;;5055473;28;20195;-43
2022/08/13 00:53:17;;;;;;;18.33;10.48;;;;;;;;;;5055200;28;20553;-46
2022/08/13 00:55:55;;;;;;;11.98;10.23;;;;;;;;;;5055199;28;20239;-43
2022/08/13 00:58:23;;;;;;;13.95;10.48;;;;;;;;;;5055411;28;20287;-43
2022/08/13 01:00:56;;;;;;;16.30;10.30;;;;;;;;;;5055015;28;20203;-43
2022/08/13 01:03:25;;;;;;;16.80;10.27;;;;;;;;;;5070522;28;20224;-44
2022/08/13 01:06:12;;;;;;;22.13;10.80;;;;;;;;;;5054591;28;20236;-43
2022/08/13 01:08:46;;;;;;;18.90;10.85;;;;;;;;;;5055523;28;20189;-44
2022/08/13 01:11:23;;;;;;;18.25;10.63;;;;;;;;;;5054917;28;20211;-43
2022/08/13 01:13:51;;;;;;;13.77;10.38;;;;;;;;;;5054127;28;20642;-44
2022/08/13 01:16:19;;;;;;;14.32;10.68;;;;;;;;;;5053946;28;20672;-43
2022/08/13 01:18:51;;;;;;;12.77;10.30;;;;;;;;;;5054686;28;20199;-43
2022/08/13 01:21:24;;;;;;;12.15;10.30;;;;;;;;;;5054676;28;20291;-45
2022/08/13 01:24:09;;;;;;;12.75;10.32;;;;;;;;;;5055274;28;20222;-44
2022/08/13 01:26:40;;;;;;;14.02;10.32;;;;;;;;;;5063500;28;20614;-43
2022/08/13 01:29:18;;;;;;;11.07;9.88;;;;;;;;;;5074541;28;20514;-45
2022/08/13 01:31:47;;;;;;;15.23;9.30;;;;;;;;;;5075791;28;20270;-45
2022/08/13 01:34:15;;;;;;;11.05;9.75;;;;;;;;;;5074844;28;20211;-47
2022/08/13 01:36:53;;;;;;;13.70;10.13;;;;;;;;;;5074266;28;20199;-46
2022/08/13 01:39:26;;;;;;;14.20;9.63;;;;;;;;;;5074969;28;20191;-44
2022/08/13 01:42:20;;;;;;;17.25;10.23;;;;;;;;;;5075107;28;20199;-45
2022/08/13 01:44:59;;;;;;;15.05;10.32;;;;;;;;;;5074839;28;20211;-45
2022/08/13 01:50:30;;;;;;;12.90;10.77;;;;;;;;;;5075385;28;20253;-45
2022/08/13 01:53:07;;;;;;;16.80;11.38;;;;;;;;;;5077348;28;20203;-48
2022/08/13 01:55:39;;;;;;;17.50;11.43;;;;;;;;;;5078796;28;20237;-44
2022/08/13 01:58:29;;;;;;;15.02;10.95;;;;;;;;;;5078630;28;20196;-44
2022/08/13 02:01:02;;;;;;;14.75;10.73;;;;;;;;;;5078597;28;20237;-46
2022/08/13 02:03:35;;;;;;;16.23;10.32;;;;;;;;;;5078677;28;20187;-45
2022/08/13 02:06:03;;;;;;;17.50;11.23;;;;;;;;;;5078412;28;20739;-45
2022/08/13 02:08:52;;;;;;;15.70;10.60;;;;;;;;;;5078398;28;20217;-44
2022/08/13 02:11:20;;;;;;;17.08;10.68;;;;;;;;;;5078330;28;20545;-44
2022/08/13 02:13:55;;;;;;;12.80;10.20;;;;;;;;;;5078552;28;20184;-44
2022/08/13 02:16:28;;;;;;;11.48;9.77;;;;;;;;;;5078259;28;20221;-45
2022/08/13 02:19:00;;;;;;;13.65;10.82;;;;;;;;;;5078292;28;20216;-43
2022/08/13 02:21:31;;;;;;;14.55;9.98;;;;;;;;;;5078171;28;20210;-44
2022/08/13 02:24:12;;;;;;;15.25;9.40;;;;;;;;;;5077985;28;20580;-46
2022/08/13 02:26:43;;;;;;;15.43;10.80;;;;;;;;;;5078251;28;20263;-47
2022/08/13 02:29:19;;;;;;;15.38;10.02;;;;;;;;;;5077834;28;20214;-45
2022/08/13 02:31:47;;;;;;;14.00;9.70;;;;;;;;;;5078414;28;20204;-44
2022/08/13 02:34:34;;;;;;;11.80;9.77;;;;;;;;;;5078318;28;20191;-45
2022/08/13 02:37:04;;;;;;;12.57;9.90;;;;;;;;;;5077747;28;20195;-44
2022/08/13 02:39:52;;;;;;;14.80;9.57;;;;;;;;;;5077391;28;20195;-45
2022/08/13 02:42:22;;;;;;;11.95;9.88;;;;;;;;;;5077501;28;20283;-44
2022/08/13 02:44:50;;;;;;;16.33;9.45;;;;;;;;;;5076644;28;20203;-47
2022/08/13 02:47:21;;;;;;;13.55;9.93;;;;;;;;;;5077155;28;20635;-44
2022/08/13 02:50:00;;;;;;;10.15;9.07;;;;;;;;;;5077309;28;20495;-43
2022/08/13 02:52:29;;;;;;;15.13;9.25;;;;;;;;;;5077050;28;20591;-45
2022/08/13 02:54:57;;;;;;;15.05;9.50;;;;;;;;;;5076387;28;20226;-46
2022/08/13 02:57:24;;;;;;;11.98;9.02;;;;;;;;;;5076947;28;20203;-45
2022/08/13 02:59:53;;;;;;;11.57;10.00;;;;;;;;;;5076942;28;20642;-49
2022/08/13 03:02:31;;;;;;;16.30;10.05;;;;;;;;;;5075877;28;20252;-45
2022/08/13 03:05:01;;;;;;;15.95;9.82;;;;;;;;;;5076849;28;20246;-45
2022/08/13 03:07:32;;;;;;;10.27;9.18;;;;;;;;;;5077053;28;20211;-43
2022/08/13 03:10:21;;;;;;;11.50;9.75;;;;;;;;;;5077003;28;20203;-44
2022/08/13 03:13:21;;;;;;;13.82;10.63;;;;;;;;;;5076740;28;20276;-45
2022/08/13 03:15:53;;;;;;;12.80;10.25;;;;;;;;;;5076562;28;20254;-46
2022/08/13 03:18:29;;;;;;;17.60;9.88;;;;;;;;;;5076633;28;20229;-44
2022/08/13 03:21:38;;;;;;;15.88;10.48;;;;;;;;;;5076560;28;20211;-46
2022/08/13 03:24:15;;;;;;;12.65;9.75;;;;;;;;;;5076775;28;20242;-43
2022/08/13 03:27:00;;;;;;;11.48;9.98;;;;;;;;;;5076752;28;20199;-44
2022/08/13 03:29:28;;;;;;;12.45;10.48;;;;;;;;;;5076533;28;20214;-46
2022/08/13 03:32:17;;;;;;;12.15;10.00;;;;;;;;;;5076383;28;20268;-44
2022/08/13 03:34:59;;;;;;;14.20;9.73;;;;;;;;;;5076437;28;20207;-47
2022/08/13 03:37:37;;;;;;;13.95;10.70;;;;;;;;;;5076396;28;20509;-44
2022/08/13 03:40:09;;;;;;;12.82;10.55;;;;;;;;;;5076343;28;20265;-44
2022/08/13 03:42:42;;;;;;;14.35;10.73;;;;;;;;;;5076794;28;20282;-47
2022/08/13 03:45:24;;;;;;;16.02;10.43;;;;;;;;;;5076663;28;20214;-45
2022/08/13 03:47:55;;;;;;;12.57;10.27;;;;;;;;;;5076579;28;20199;-45
2022/08/13 03:50:23;;;;;;;14.52;10.20;;;;;;;;;;5076178;28;20214;-44
2022/08/13 03:52:51;;;;;;;14.82;11.00;;;;;;;;;;5074860;28;20231;-44
2022/08/13 03:55:18;;;;;;;14.32;10.75;;;;;;;;;;5076885;28;20222;-47
2022/08/13 03:57:48;;;;;;;12.45;10.25;;;;;;;;;;5076309;28;20200;-44
2022/08/13 04:00:39;;;;;;;13.15;10.88;;;;;;;;;;5076142;28;20276;-50
2022/08/13 04:03:20;;;;;;;17.00;10.32;;;;;;;;;;5076182;28;20215;-44
2022/08/13 04:05:49;;;;;;;13.63;9.82;;;;;;;;;;5076243;28;20249;-45
2022/08/13 04:08:23;;;;;;;16.48;11.02;;;;;;;;;;5076275;28;20211;-43
2022/08/13 04:10:50;;;;;;;20.67;11.85;;;;;;;;;;5065555;28;20226;-44
2022/08/13 04:13:20;;;;;;;17.23;12.25;;;;;;;;;;5075156;28;20203;-44
2022/08/13 04:16:10;;;;;;;18.65;12.80;;;;;;;;;;5075672;28;20239;-43
2022/08/13 04:18:39;;;;;;;20.55;12.57;;;;;;;;;;5075827;28;20227;-44
2022/08/13 04:21:11;;;;;;;16.23;12.32;;;;;;;;;;5076013;28;20179;-44
2022/08/13 04:23:50;;;;;;;15.25;11.48;;;;;;;;;;5077774;28;20623;-44
2022/08/13 04:26:23;;;;;;;16.08;11.82;;;;;;;;;;5078864;28;20226;-43
2022/08/13 04:29:00;;;;;;;15.40;12.23;;;;;;;;;;5081527;28;20207;-43
2022/08/13 04:31:28;;;;;;;15.18;11.80;;;;;;;;;;5083583;28;20540;-47
2022/08/13 04:34:16;;;;;;;15.95;11.15;;;;;;;;;;5085534;28;20286;-45
2022/08/13 04:37:04;;;;;;;15.40;12.27;;;;;;;;;;5082062;28;20286;-44
2022/08/13 04:39:32;;;;;;;16.17;12.63;;;;;;;;;;5082890;28;20669;-45
2022/08/13 04:42:19;;;;;;;14.32;11.93;;;;;;;;;;5081561;28;20191;-47
2022/08/13 04:45:00;;;;;;;13.75;12.35;;;;;;;;;;5081226;28;20207;-45
2022/08/13 04:47:30;;;;;;;18.10;11.75;;;;;;;;;;5082879;28;20229;-45
2022/08/13 04:49:57;;;;;;;15.25;12.38;;;;;;;;;;5080507;28;20634;-45
2022/08/13 04:52:25;;;;;;;18.58;12.43;;;;;;;;;;5083634;28;20206;-45
2022/08/13 04:54:56;;;;;;;17.23;11.85;;;;;;;;;;5084850;28;20195;-44
2022/08/13 04:57:23;;;;;;;14.85;12.07;;;;;;;;;;5083612;28;20284;-45
2022/08/13 05:00:11;;;;;;;13.75;11.90;;;;;;;;;;5084066;28;20681;-45
2022/08/13 05:02:41;;;;;;;16.40;12.40;;;;;;;;;;5081067;28;20205;-47
2022/08/13 05:05:11;;;;;;;16.92;12.43;;;;;;;;;;5082760;28;20303;-45
2022/08/13 05:07:47;;;;;;;15.13;12.10;;;;;;;;;;5081991;28;20530;-46
2022/08/13 05:10:19;;;;;;;16.52;12.05;;;;;;;;;;5080892;28;20219;-47
2022/08/13 05:13:01;;;;;;;14.77;11.90;;;;;;;;;;5080135;28;20203;-46
2022/08/13 05:15:32;;;;;;;16.15;11.52;;;;;;;;;;5082528;28;20224;-45
2022/08/13 05:18:18;;;;;;;13.77;11.20;;;;;;;;;;5082334;28;20703;-45
2022/08/13 05:20:59;;;;;;;15.73;12.18;;;;;;;;;;5082432;28;20529;-46
2022/08/13 05:23:36;;;;;;;13.32;11.93;;;;;;;;;;5082609;28;20207;-49
2022/08/13 05:26:24;;;;;;;17.15;13.57;;;;;;;;;;5081673;28;20288;-46
2022/08/13 05:29:07;;;;;;;21.85;13.65;;;;;;;;;;5081687;28;20232;-45
2022/08/13 05:31:34;;;;;;;22.58;14.35;;;;;;;;;;5078025;28;20206;-45
2022/08/13 05:34:26;;;;;;;17.60;14.23;;;;;;;;;;5082698;28;20230;-45
2022/08/13 05:36:55;;;;;;;21.70;15.13;;;;;;;;;;5080319;28;20708;-46
2022/08/13 05:39:43;;;;;;;22.15;14.90;;;;;;;;;;5079238;28;20218;-49
2022/08/13 05:42:21;;;;;;;19.25;14.95;;;;;;;;;;5081998;28;20223;-48
2022/08/13 05:44:56;;;;;;;18.90;15.25;;;;;;;;;;5081406;28;20225;-45
2022/08/13 05:47:27;;;;;;;18.63;14.00;;;;;;;;;;5081001;28;20250;-47
2022/08/13 05:49:55;;;;;;;18.83;15.75;;;;;;;;;;5083778;28;20214;-45
2022/08/13 05:52:30;;;;;;;19.20;14.05;;;;;;;;;;5083549;28;20204;-47
2022/08/13 05:55:06;;;;;;;18.08;14.35;;;;;;;;;;5067136;28;20203;-46
2022/08/13 05:57:52;;;;;;;18.13;13.93;;;;;;;;;;5066491;28;20226;-48
2022/08/13 06:06:14;;;;;;;17.15;14.68;;;;;;;;;;5073158;28;20337;-46
2022/08/13 06:08:46;;;;;;;17.42;14.45;;;;;;;;;;5073675;28;20276;-47
2022/08/13 06:11:18;;;;;;;18.55;13.13;;;;;;;;;;5070881;28;20231;-45
2022/08/13 06:14:05;;;;;;;17.60;12.13;;;;;;;;;;5073497;28;20231;-47
2022/08/13 06:16:35;;;;;;;20.02;13.32;;;;;;;;;;5073030;28;20681;-46
2022/08/13 06:19:26;;;;;;;16.80;12.57;;;;;;;;;;5073565;28;20255;-47
2022/08/13 06:22:00;;;;;;;13.75;12.05;;;;;;;;;;5073412;28;20227;-47
2022/08/13 06:24:29;;;;;;;15.15;11.77;;;;;;;;;;5073511;28;20254;-46
2022/08/13 06:27:00;;;;;;;14.75;11.07;;;;;;;;;;5072953;28;20230;-46
2022/08/13 06:29:28;;;;;;;13.50;10.25;;;;;;;;;;5073157;28;20697;-52
2022/08/13 06:32:03;;;;;;;10.95;9.77;;;;;;;;;;5072927;28;20227;-47
2022/08/13 06:34:51;;;;;;;12.27;10.10;;;;;;;;;;5073491;28;20231;-46
2022/08/13 06:37:18;;;;;;;12.40;10.88;;;;;;;;;;5074802;28;20614;-45
2022/08/13 06:39:45;;;;;;;13.25;10.35;;;;;;;;;;5077074;28;20250;-45
2022/08/13 06:42:32;;;;;;;13.75;10.30;;;;;;;;;;5075772;28;20227;-47
2022/08/13 06:44:59;;;;;;;10.98;9.80;;;;;;;;;;5075946;28;20579;-47
2022/08/13 06:47:31;;;;;;;16.35;10.23;;;;;;;;;;5073832;28;20599;-47
2022/08/13 06:50:10;;;;;;;11.82;10.18;;;;;;;;;;5073870;28;20903;-46
2022/08/13 06:52:38;;;;;;;11.77;9.82;;;;;;;;;;5071445;28;20235;-46
2022/08/13 06:55:07;;;;;;;14.48;10.27;;;;;;;;;;5076943;28;20230;-45
2022/08/13 07:00:58;;;;;;;12.40;9.05;;;;;;;;;;4219741;22;20867;-51
2022/08/13 07:03:28;;;;;;;11.15;9.95;;;;;;;;;;5058926;28;20231;-45
2022/08/13 07:06:20;;;;;;;15.80;10.00;;;;;;;;;;5064598;28;20230;-45
2022/08/13 07:08:48;;;;;;;10.40;9.35;;;;;;;;;;5076881;28;20219;-45
2022/08/13 07:11:22;;;;;;;11.90;8.90;;;;;;;;;;5058181;28;20301;-49
2022/08/13 07:14:03;;;;;;;12.65;9.15;;;;;;;;;;5082840;28;20227;-46
2022/08/13 07:16:32;;;;;;;11.27;9.43;;;;;;;;;;5075774;28;20618;-46
2022/08/13 07:19:00;;;;;;;13.13;9.70;;;;;;;;;;5075983;28;20672;-46
2022/08/13 07:21:29;;;;;;;13.45;8.95;;;;;;;;;;5075795;28;20711;-46
2022/08/13 07:24:10;;;;;;;12.55;9.43;;;;;;;;;;5076120;28;20231;-46
2022/08/13 07:27:05;;;;;;;10.75;9.55;;;;;;;;;;5076039;28;20231;-46
2022/08/13 07:29:37;;;;;;;10.43;9.20;;;;;;;;;;5075560;28;20226;-45
2022/08/13 07:32:19;;;;;;;16.02;9.70;;;;;;;;;;5076097;28;20234;-45
2022/08/13 07:34:58;;;;;;;11.63;9.05;;;;;;;;;;5076145;28;20271;-47
2022/08/13 07:37:27;;;;;;;12.38;9.65;;;;;;;;;;5075706;28;20239;-45
2022/08/13 07:39:59;;;;;;;15.65;10.63;;;;;;;;;;5081916;28;20234;-50
2022/08/13 07:42:28;;;;;;;10.50;9.40;;;;;;;;;;5079009;28;20218;-46
2022/08/13 07:45:01;;;;;;;11.45;9.10;;;;;;;;;;5089505;28;20235;-46
2022/08/13 07:47:52;;;;;;;10.77;9.40;;;;;;;;;;5074831;28;20219;-46
2022/08/13 07:50:39;;;;;;;11.13;9.27;;;;;;;;;;5075127;28;20234;-47
2022/08/13 07:53:10;;;;;;;9.85;8.85;;;;;;;;;;5067809;28;20247;-51
2022/08/13 07:55:44;;;;;;;12.73;9.18;;;;;;;;;;5040028;28;20223;-46
2022/08/13 07:58:33;;;;;;;12.98;9.52;;;;;;;;;;5068545;28;20223;-46
2022/08/13 08:01:03;;;;;;;11.57;8.80;;;;;;;;;;5074987;28;20273;-45
2022/08/13 08:03:37;;;;;;;12.95;9.38;;;;;;;;;;5074844;28;20234;-49
2022/08/13 08:06:21;;;;;;;11.35;9.55;;;;;;;;;;5074104;28;20245;-46
2022/08/13 08:08:59;;;;;;;13.13;9.50;;;;;;;;;;5074920;28;20240;-48
2022/08/13 08:14:18;;;;;;;10.80;8.55;;;;;;;;;;5075324;28;20637;-46
2022/08/13 08:17:00;;;;;;;12.40;8.55;;;;;;;;;;5075251;28;20207;-47
2022/08/13 08:19:47;;;;;;;12.93;9.10;;;;;;;;;;5074141;28;20199;-46
2022/08/13 08:22:35;;;;;;;14.50;9.45;;;;;;;;;;5075945;28;20183;-46
2022/08/13 08:25:03;;;;;;;9.07;7.88;;;;;;;;;;5075667;28;20204;-47
2022/08/13 08:27:48;;;;;;;11.65;8.63;;;;;;;;;;5075687;28;20200;-46
2022/08/13 08:30:37;;;;;;;11.38;8.30;;;;;;;;;;5069258;28;20184;-46
2022/08/13 08:33:26;;;;;;;10.13;6.88;;;;;;;;;;5075561;28;20539;-47
2022/08/13 08:36:13;;;;;;;10.80;8.50;;;;;;;;;;5075246;28;20280;-45
2022/08/13 08:45:00;;;;;;;10.55;7.63;;;;;;;;;;5069491;28;20211;-53
2022/08/13 08:47:35;;;;;;;9.63;6.95;;;;;;;;;;5065142;28;20492;-46
2022/08/13 08:50:26;;;;;;;10.18;7.38;;;;;;;;;;5071956;28;20664;-45
2022/08/13 08:56:08;;;;;;;12.88;8.27;;;;;;;;;;5073136;28;20215;-46
2022/08/13 08:58:38;;;;;;;12.43;9.00;;;;;;;;;;5074373;28;20314;-45
2022/08/13 09:01:08;;;;;;;11.50;8.45;;;;;;;;;;5073262;28;20239;-46
2022/08/13 09:03:39;;;;;;;13.05;8.82;;;;;;;;;;5074376;28;20227;-45
2022/08/13 09:06:28;;;;;;;13.43;8.98;;;;;;;;;;5073921;28;20683;-48
2022/08/13 09:09:17;;;;;;;11.75;8.85;;;;;;;;;;5074214;28;20227;-46
2022/08/13 09:11:47;;;;;;;12.32;8.90;;;;;;;;;;5073655;28;20268;-48
2022/08/13 09:14:26;;;;;;;9.85;8.68;;;;;;;;;;5075103;28;20194;-46
2022/08/13 09:16:57;;;;;;;11.10;9.10;;;;;;;;;;5075016;28;20216;-45
2022/08/13 09:19:26;;;;;;;10.68;9.20;;;;;;;;;;5088361;28;20194;-47
2022/08/13 09:22:17;;;;;;;12.25;8.45;;;;;;;;;;5084401;28;20499;-46
2022/08/13 09:24:52;;;;;;;10.73;9.32;;;;;;;;;;5078966;28;20256;-46
2022/08/13 09:27:19;;;;;;;10.25;9.20;;;;;;;;;;5074518;28;20258;-46
2022/08/13 09:29:49;;;;;;;9.05;7.95;;;;;;;;;;5074281;28;20199;-46
2022/08/13 09:32:29;;;;;;;9.65;8.10;;;;;;;;;;5073865;28;20191;-47
2022/08/13 09:35:00;;;;;;;9.48;8.45;;;;;;;;;;5074591;28;20206;-45
2022/08/13 09:37:30;;;;;;;8.43;6.95;;;;;;;;;;5055144;28;20695;-51
2022/08/13 09:40:18;;;;;;;11.68;7.97;;;;;;;;;;5050598;28;20235;-47
2022/08/13 09:43:19;;;;;;;9.75;7.60;;;;;;;;;;5046528;28;20215;-46
2022/08/13 09:46:09;;;;;;;9.02;8.13;;;;;;;;;;5073924;28;20219;-45
2022/08/13 09:48:36;;;;;;;8.65;7.75;;;;;;;;;;5068167;28;21119;-44
2022/08/13 09:51:13;;;;;;;11.75;7.53;;;;;;;;;;5053695;28;20723;-44
2022/08/13 09:54:02;;;;;;;9.10;7.45;;;;;;;;;;5053241;28;20227;-44
2022/08/13 09:56:37;;;;;;;8.68;7.78;;;;;;;;;;5054540;28;20203;-44
2022/08/13 09:59:08;;;;;;;8.23;6.85;;;;;;;;;;5054337;28;20709;-44
2022/08/13 10:01:56;;;;;;;7.28;6.03;;;;;;;;;;5054317;28;20556;-44
2022/08/13 10:04:26;;;;;;;6.78;6.07;;;;;;;;;;5053280;28;20208;-44
2022/08/13 10:06:58;;;;;;;7.43;6.60;;;;;;;;;;5053334;28;20208;-44
2022/08/13 10:09:29;;;;;;;7.30;6.03;;;;;;;;;;5054622;28;20518;-45
2022/08/13 10:12:01;;;;;;;7.72;6.07;;;;;;;;;;5055028;28;20192;-44
2022/08/13 10:14:47;;;;;;;7.65;6.15;;;;;;;;;;5057866;28;20211;-45
2022/08/13 10:17:25;;;;;;;7.10;5.85;;;;;;;;;;5058350;28;20236;-44
2022/08/13 10:20:33;;;;;;;6.20;5.38;;;;;;;;;;5057902;28;20203;-44
2022/08/13 10:23:02;;;;;;;6.78;5.82;;;;;;;;;;5058329;28;20291;-44
2022/08/13 10:25:30;;;;;;;8.48;5.60;;;;;;;;;;5058436;28;20200;-45
2022/08/13 10:28:31;;;;;;;6.63;5.78;;;;;;;;;;5058239;28;20204;-45
2022/08/13 10:31:07;;;;;;;6.93;5.28;;;;;;;;;;5057695;28;20204;-44
2022/08/13 10:33:55;;;;;;;7.30;5.82;;;;;;;;;;5058157;28;20214;-45
2022/08/13 10:36:26;;;;;;;8.43;5.90;;;;;;;;;;5057975;28;20204;-44
2022/08/13 10:39:02;;;;;;;7.20;5.70;;;;;;;;;;5058094;28;20199;-44
2022/08/13 10:41:34;;;;;;;6.43;5.65;;;;;;;;;;5058173;28;20192;-43
2022/08/13 10:44:21;;;;;;;9.70;5.97;;;;;;;;;;5058238;28;20184;-44
2022/08/13 10:46:54;;;;;;;8.02;6.40;;;;;;;;;;5057890;28;20189;-44
2022/08/13 10:49:22;;;;;;;10.40;6.75;;;;;;;;;;5057615;28;20204;-44
2022/08/13 10:51:49;;;;;;;7.13;5.82;;;;;;;;;;5057302;28;20207;-44
2022/08/13 10:54:32;;;;;;;7.07;6.07;;;;;;;;;;5057471;28;20257;-44
2022/08/13 10:57:05;;;;;;;8.80;6.32;;;;;;;;;;5057642;28;20228;-44
2022/08/13 10:59:40;;;;;;;6.97;6.10;;;;;;;;;;5057648;28;20207;-45
2022/08/13 11:02:07;;;;;;;8.88;6.25;;;;;;;;;;5065337;28;20219;-45
2022/08/13 11:04:45;;;;;;;9.30;7.65;;;;;;;;;;5080522;28;20187;-50
2022/08/13 11:07:17;;;;;;;9.32;7.18;;;;;;;;;;5077426;28;20230;-47
2022/08/13 11:09:44;;;;;;;7.53;6.72;;;;;;;;;;5077235;28;20215;-46
2022/08/13 11:12:16;;;;;;;12.30;6.72;;;;;;;;;;5077224;28;20542;-47
2022/08/13 11:14:49;;;;;;;10.75;7.43;;;;;;;;;;5076986;28;20535;-46
2022/08/13 11:17:20;;;;;;;10.30;7.47;;;;;;;;;;5071303;28;20228;-47
2022/08/13 11:20:13;;;;;;;9.80;7.88;;;;;;;;;;5073321;28;20200;-46
2022/08/13 11:22:48;;;;;;;9.07;7.57;;;;;;;;;;5055652;28;20207;-46
2022/08/13 11:25:17;;;;;;;9.45;8.00;;;;;;;;;;5071013;28;20229;-47
2022/08/13 11:28:11;;;;;;;9.70;8.13;;;;;;;;;;5084463;28;20662;-47
2022/08/13 11:30:42;;;;;;;11.63;8.30;;;;;;;;;;5091922;28;20249;-55
2022/08/13 11:33:09;;;;;;;10.80;7.82;;;;;;;;;;5096009;28;20238;-47
2022/08/13 11:35:43;;;;;;;10.57;8.40;;;;;;;;;;5078352;28;20242;-47
2022/08/13 11:38:18;;;;;;;10.80;8.43;;;;;;;;;;5096008;28;20336;-47
2022/08/13 11:40:56;;;;;;;10.40;8.68;;;;;;;;;;5077154;28;20225;-52
2022/08/13 11:43:29;;;;;;;10.18;8.45;;;;;;;;;;5075768;28;20227;-50
2022/08/13 11:46:16;;;;;;;10.65;8.90;;;;;;;;;;5075712;28;20231;-50
2022/08/13 11:48:48;;;;;;;12.43;9.45;;;;;;;;;;5075558;28;20272;-46
2022/08/13 11:51:19;;;;;;;11.98;9.57;;;;;;;;;;5075386;28;20238;-47
2022/08/13 11:53:46;;;;;;;12.23;10.45;;;;;;;;;;5075477;28;20234;-47
2022/08/13 11:56:34;;;;;;;13.07;10.50;;;;;;;;;;5074852;28;20223;-47
2022/08/13 11:59:16;;;;;;;13.80;10.70;;;;;;;;;;5075668;28;20246;-46
2022/08/13 12:01:44;;;;;;;13.60;10.50;;;;;;;;;;5075262;28;20235;-46
2022/08/13 12:04:15;;;;;;;13.10;10.23;;;;;;;;;;5075521;28;20227;-47
2022/08/13 12:06:49;;;;;;;11.45;8.52;;;;;;;;;;5075026;28;20661;-48
2022/08/13 12:09:18;;;;;;;12.45;9.05;;;;;;;;;;5075280;28;20574;-47
2022/08/13 12:12:06;;;;;;;10.98;9.15;;;;;;;;;;5074897;28;20687;-47
2022/08/13 12:14:38;;;;;;;11.27;9.95;;;;;;;;;;5075520;28;20231;-47
2022/08/13 12:17:06;;;;;;;9.82;8.82;;;;;;;;;;5057500;28;20223;-47
2022/08/13 12:19:34;;;;;;;15.95;9.07;;;;;;;;;;5075235;28;20223;-46
2022/08/13 12:22:01;;;;;;;13.48;9.52;;;;;;;;;;5074958;28;20220;-46
2022/08/13 12:24:29;;;;;;;13.85;10.02;;;;;;;;;;5039966;28;20223;-55
2022/08/13 12:27:03;;;;;;;13.43;9.85;;;;;;;;;;5069939;28;20778;-47
2022/08/13 12:29:31;;;;;;;13.77;10.20;;;;;;;;;;5074711;28;20223;-47
2022/08/13 12:32:15;;;;;;;15.57;10.82;;;;;;;;;;5074714;28;20235;-48
2022/08/13 12:34:45;;;;;;;12.95;11.02;;;;;;;;;;5074415;28;20227;-46
2022/08/13 12:37:19;;;;;;;12.10;9.95;;;;;;;;;;5075277;28;20234;-50
2022/08/13 12:39:51;;;;;;;11.75;10.25;;;;;;;;;;5094679;28;20218;-48
2022/08/13 12:42:18;;;;;;;10.77;9.60;;;;;;;;;;5076162;28;20238;-46
2022/08/13 12:44:47;;;;;;;12.32;10.75;;;;;;;;;;5074489;28;20227;-48
2022/08/13 12:47:34;;;;;;;14.20;10.38;;;;;;;;;;5074463;28;20227;-47
2022/08/13 12:50:02;;;;;;;13.75;10.38;;;;;;;;;;5074403;28;20227;-46
2022/08/13 12:52:32;;;;;;;16.80;10.85;;;;;;;;;;5074319;28;20734;-48
2022/08/13 12:55:00;;;;;;;14.27;11.35;;;;;;;;;;5074132;28;20246;-46
2022/08/13 12:57:42;;;;;;;12.02;9.90;;;;;;;;;;5074596;28;20239;-46
2022/08/13 13:00:29;;;;;;;13.95;10.90;;;;;;;;;;5073959;28;20235;-48
2022/08/13 13:02:59;;;;;;;13.88;10.80;;;;;;;;;;5074599;28;20227;-47
2022/08/13 13:05:29;;;;;;;13.68;11.23;;;;;;;;;;5074181;28;20223;-46
2022/08/13 13:08:26;;;;;;;11.23;10.02;;;;;;;;;;5073932;28;20676;-46
2022/08/13 13:11:08;;;;;;;14.27;10.35;;;;;;;;;;5073682;28;20306;-46
2022/08/13 13:13:44;;;;;;;16.08;10.80;;;;;;;;;;5073901;28;20231;-46
2022/08/13 13:16:25;;;;;;;15.15;10.32;;;;;;;;;;5073889;28;20224;-47
2022/08/13 13:19:03;;;;;;;12.73;10.25;;;;;;;;;;5074141;28;20241;-48
2022/08/13 13:21:40;;;;;;;12.27;10.15;;;;;;;;;;5073929;28;20280;-50
2022/08/13 13:24:09;;;;;;;15.18;11.27;;;;;;;;;;5073062;28;20223;-47
2022/08/13 13:26:47;;;;;;;13.50;10.93;;;;;;;;;;5073284;28;20215;-45
2022/08/13 13:29:32;;;;;;;15.57;10.43;;;;;;;;;;5072925;28;20231;-46
2022/08/13 13:32:13;;;;;;;16.70;10.95;;;;;;;;;;5072575;28;20614;-45
2022/08/13 13:35:01;;;;;;;14.25;10.43;;;;;;;;;;5073307;28;20231;-48
2022/08/13 13:37:49;;;;;;;11.38;9.60;;;;;;;;;;5073865;28;20233;-45
2022/08/13 13:40:34;;;;;;;13.55;8.98;;;;;;;;;;5071969;28;20230;-46
2022/08/13 13:43:18;;;;;;;13.25;10.10;;;;;;;;;;5073986;28;20226;-47
2022/08/13 13:45:56;;;;;;;13.65;9.52;;;;;;;;;;5073746;28;20227;-48
2022/08/13 13:48:32;;;;;;;12.23;10.60;;;;;;;;;;5091713;28;20218;-47
2022/08/13 13:51:03;;;;;;;12.55;11.10;;;;;;;;;;5097987;28;20222;-47
2022/08/13 13:53:33;;;;;;;12.43;10.20;;;;;;;;;;5098043;28;20219;-46
2022/08/13 13:56:20;;;;;;;14.73;10.85;;;;;;;;;;5097654;28;20271;-46
2022/08/13 13:58:47;;;;;;;13.73;11.20;;;;;;;;;;5097045;28;20249;-47
2022/08/13 14:01:23;;;;;;;13.90;11.55;;;;;;;;;;5097378;28;20238;-47
2022/08/13 14:03:51;;;;;;;16.65;12.98;;;;;;;;;;5097921;28;20254;-48
2022/08/13 14:06:29;;;;;;;14.27;12.32;;;;;;;;;;5097022;28;20717;-46
2022/08/13 14:09:00;;;;;;;15.77;12.55;;;;;;;;;;5097310;28;20605;-47
2022/08/13 14:11:31;;;;;;;13.75;12.35;;;;;;;;;;5085559;28;20230;-46
2022/08/13 14:14:10;;;;;;;12.95;11.13;;;;;;;;;;5077897;28;20226;-46
2022/08/13 14:16:38;;;;;;;20.55;12.00;;;;;;;;;;5076692;28;20232;-48
2022/08/13 14:19:07;;;;;;;13.90;11.73;;;;;;;;;;5077011;28;20327;-47
2022/08/13 14:21:51;;;;;;;17.17;11.55;;;;;;;;;;5081384;28;20249;-46
2022/08/13 14:24:19;;;;;;;12.65;10.82;;;;;;;;;;5079573;28;20247;-47
2022/08/13 14:26:48;;;;;;;15.40;12.00;;;;;;;;;;5081304;28;20254;-49
2022/08/13 14:29:16;;;;;;;14.57;10.60;;;;;;;;;;5058952;28;20215;-47
2022/08/13 14:31:46;;;;;;;12.65;9.90;;;;;;;;;;5073992;28;20211;-46
2022/08/13 14:34:21;;;;;;;12.20;7.95;;;;;;;;;;5076709;28;20223;-47
2022/08/13 14:36:49;;;;;;;10.73;8.38;;;;;;;;;;5058929;28;20663;-50
2022/08/13 14:39:37;;;;;;;14.20;7.90;;;;;;;;;;5075543;28;20242;-51
2022/08/13 14:42:29;;;;;;;11.50;7.78;;;;;;;;;;5074687;28;20253;-46
2022/08/13 14:48:25;;;;;;;12.35;7.65;;;;;;;;;;5073853;28;20246;-47
2022/08/13 14:50:55;;;;;;;8.45;7.55;;;;;;;;;;5076814;28;20455;-47
2022/08/13 14:53:22;;;;;;;9.50;7.75;;;;;;;;;;5075705;28;20606;-47
2022/08/13 14:55:55;;;;;;;10.27;7.80;;;;;;;;;;5076775;28;20292;-47
2022/08/13 14:58:24;;;;;;;8.57;7.68;;;;;;;;;;5058931;28;20231;-48
2022/08/13 15:01:01;;;;;;;10.85;7.80;;;;;;;;;;5076397;28;20250;-47
2022/08/13 15:03:31;;;;;;;8.55;7.68;;;;;;;;;;5076292;28;20235;-47
2022/08/13 15:06:00;;;;;;;8.27;7.45;;;;;;;;;;5076355;28;20238;-46
2022/08/13 15:08:29;;;;;;;10.55;8.13;;;;;;;;;;5075904;28;20235;-47
2022/08/13 15:11:01;;;;;;;13.45;8.38;;;;;;;;;;5076116;28;20227;-47
2022/08/13 15:13:35;;;;;;;10.93;8.40;;;;;;;;;;5074746;28;20227;-46
2022/08/13 15:16:26;;;;;;;10.27;8.55;;;;;;;;;;5072157;28;20254;-46
2022/08/13 15:19:04;;;;;;;10.35;8.32;;;;;;;;;;5076030;28;20262;-48
2022/08/13 15:21:43;;;;;;;8.98;8.07;;;;;;;;;;5076417;28;20219;-46
2022/08/13 15:24:28;;;;;;;9.20;7.53;;;;;;;;;;5027320;28;20684;-46
2022/08/13 15:27:39;;;;;;;10.40;7.82;;;;;;;;;;5075805;28;20285;-47
2022/08/13 15:30:14;;;;;;;10.40;8.48;;;;;;;;;;5075959;28;20239;-49
2022/08/13 15:32:44;;;;;;;10.05;8.05;;;;;;;;;;5076241;28;20231;-50
2022/08/13 15:35:34;;;;;;;11.85;8.80;;;;;;;;;;5075704;28;20231;-47
2022/08/13 15:38:03;;;;;;;10.85;9.40;;;;;;;;;;5075597;28;20230;-46
2022/08/13 15:40:31;;;;;;;11.65;9.73;;;;;;;;;;5075364;28;20223;-47
2022/08/13 15:43:06;;;;;;;10.07;8.63;;;;;;;;;;5075596;28;20570;-48
2022/08/13 15:45:40;;;;;;;10.82;9.05;;;;;;;;;;5075644;28;20227;-46
2022/08/13 15:48:12;;;;;;;14.30;9.48;;;;;;;;;;5075471;28;20227;-48